Time;durP1;ratioP1;P1;durP2;ratioP2;P2;SDS_P1;SDS_P2;PMS_P1;PMS_P2;Temp;Humidity;BMP_temperature;BMP_pressure;BME280_temperature;BME280_humidity;BME280_pressure;Samples;Min_cycle;Max_cycle;Signal;HPM_P1;HPM_P2
2023/03/27 00:00:46;;;;;;;13.60;2.40;;;3.70;99.90;;;;;;5051168;28;20077;-57
2023/03/27 00:03:14;;;;;;;12.03;2.10;;;3.70;99.90;;;;;;5050871;28;20059;-58
2023/03/27 00:05:40;;;;;;;12.70;2.07;;;3.60;99.90;;;;;;5050913;28;20397;-58
2023/03/27 00:08:10;;;;;;;16.00;2.60;;;3.60;99.90;;;;;;5050813;28;20170;-57
2023/03/27 00:10:37;;;;;;;10.60;2.43;;;3.60;99.90;;;;;;5051029;28;20033;-57
2023/03/27 00:13:04;;;;;;;16.90;2.37;;;3.60;99.90;;;;;;5050839;28;20549;-57
2023/03/27 00:15:31;;;;;;;11.60;2.07;;;3.60;99.90;;;;;;5051079;28;20112;-57
2023/03/27 00:17:57;;;;;;;14.23;2.70;;;3.60;99.90;;;;;;5050534;28;20041;-57
2023/03/27 00:20:25;;;;;;;12.90;1.83;;;3.60;99.90;;;;;;5051176;28;20064;-57
2023/03/27 00:22:55;;;;;;;11.20;1.93;;;3.60;99.90;;;;;;5050745;28;20115;-57
2023/03/27 00:25:23;;;;;;;10.50;2.10;;;3.60;99.90;;;;;;5050615;28;20117;-57
2023/03/27 00:27:49;;;;;;;15.47;2.37;;;3.50;99.90;;;;;;5050821;28;20108;-57
2023/03/27 00:30:16;;;;;;;14.10;2.70;;;3.50;99.90;;;;;;5050627;28;20120;-57
2023/03/27 00:32:42;;;;;;;19.10;2.37;;;3.50;99.90;;;;;;5050557;28;20063;-57
2023/03/27 00:35:08;;;;;;;17.80;2.87;;;3.40;99.90;;;;;;5032622;28;20052;-57
2023/03/27 00:37:37;;;;;;;15.73;2.43;;;3.40;99.90;;;;;;5050350;28;20497;-57
2023/03/27 00:40:16;;;;;;;14.75;2.10;;;3.40;99.90;;;;;;5050646;28;20276;-57
2023/03/27 00:42:47;;;;;;;10.37;2.13;;;3.40;99.90;;;;;;5032612;28;20040;-57
2023/03/27 00:45:17;;;;;;;12.80;2.00;;;3.40;99.90;;;;;;5032290;28;20451;-58
2023/03/27 00:47:45;;;;;;;17.10;2.33;;;3.40;99.90;;;;;;5032336;28;20037;-57
2023/03/27 00:50:16;;;;;;;15.00;2.00;;;3.40;99.90;;;;;;5032527;28;20061;-57
2023/03/27 00:52:46;;;;;;;12.60;1.80;;;3.40;99.90;;;;;;5050430;28;20060;-57
2023/03/27 00:55:15;;;;;;;11.20;1.50;;;3.40;99.90;;;;;;5050110;28;20032;-57
2023/03/27 00:57:45;;;;;;;10.35;2.22;;;3.40;99.90;;;;;;5066001;22;20094;-48
2023/03/27 01:00:13;;;;;;;11.47;2.10;;;3.40;99.90;;;;;;5010933;28;20040;-48
2023/03/27 01:02:41;;;;;;;8.10;1.88;;;3.30;99.90;;;;;;5012701;28;20033;-50
2023/03/27 01:05:08;;;;;;;15.30;2.10;;;3.30;99.90;;;;;;5030126;28;20474;-49
2023/03/27 01:07:36;;;;;;;15.27;2.37;;;3.30;99.90;;;;;;5030263;28;20042;-51
2023/03/27 01:10:06;;;;;;;13.25;2.33;;;3.20;99.90;;;;;;5012609;28;20038;-49
2023/03/27 01:13:03;;;;;;;15.63;2.20;;;3.20;99.90;;;;;;5012448;28;20033;-48
2023/03/27 01:15:42;;;;;;;14.63;2.30;;;3.20;99.90;;;;;;5015993;28;20463;-48
2023/03/27 01:18:13;;;;;;;13.00;2.20;;;3.20;99.90;;;;;;5034105;28;20406;-50
2023/03/27 01:20:53;;;;;;;11.83;2.13;;;3.20;99.90;;;;;;5016546;28;20081;-47
2023/03/27 01:23:47;;;;;;;9.88;2.13;;;3.20;99.90;;;;;;5034328;28;20446;-48
2023/03/27 01:26:21;;;;;;;9.47;1.70;;;3.20;99.90;;;;;;5034304;28;20156;-47
2023/03/27 01:28:54;;;;;;;12.67;2.40;;;3.20;99.90;;;;;;5016229;28;20037;-48
2023/03/27 01:31:44;;;;;;;9.97;2.40;;;3.20;99.90;;;;;;5016247;28;20125;-46
2023/03/27 01:34:30;;;;;;;13.13;2.10;;;3.30;99.90;;;;;;5033785;28;20026;-50
2023/03/27 01:37:13;;;;;;;9.67;2.23;;;3.30;99.90;;;;;;4976491;28;20049;-48
2023/03/27 01:39:56;;;;;;;13.10;2.43;;;3.20;99.90;;;;;;5015952;28;20441;-50
2023/03/27 01:42:25;;;;;;;13.53;2.00;;;3.20;99.90;;;;;;5033809;28;20029;-49
2023/03/27 01:44:53;;;;;;;15.10;2.20;;;3.10;99.90;;;;;;5015875;28;20032;-48
2023/03/27 01:47:45;;;;;;;18.23;2.50;;;3.10;99.90;;;;;;5015749;28;20044;-46
2023/03/27 01:50:22;;;;;;;12.53;2.70;;;3.10;99.90;;;;;;5015968;28;20108;-47
2023/03/27 01:53:02;;;;;;;18.83;2.73;;;3.10;99.90;;;;;;5016016;28;20036;-50
2023/03/27 01:55:33;;;;;;;9.07;2.23;;;3.10;99.90;;;;;;5033358;28;20164;-48
2023/03/27 01:58:06;;;;;;;12.10;2.23;;;3.10;99.90;;;;;;5015556;28;20510;-47
2023/03/27 02:00:34;;;;;;;17.73;2.83;;;3.00;99.90;;;;;;5015655;28;20375;-47
2023/03/27 02:03:18;;;;;;;16.50;2.53;;;2.90;99.90;;;;;;5015722;28;20398;-46
2023/03/27 02:06:00;;;;;;;9.73;2.00;;;2.90;99.90;;;;;;5015651;28;20025;-46
2023/03/27 02:08:31;;;;;;;13.47;2.40;;;2.80;99.90;;;;;;5015373;28;20562;-48
2023/03/27 02:11:06;;;;;;;13.47;2.20;;;2.80;99.90;;;;;;5015482;28;20498;-47
2023/03/27 02:13:56;;;;;;;12.13;2.07;;;2.70;99.90;;;;;;5015302;28;20044;-46
2023/03/27 02:16:27;;;;;;;10.90;2.40;;;2.70;99.90;;;;;;5015231;28;20120;-46
2023/03/27 02:19:10;;;;;;;15.17;2.20;;;2.70;99.90;;;;;;5015357;28;20026;-50
2023/03/27 02:21:36;;;;;;;14.73;2.13;;;2.60;99.90;;;;;;5015405;28;20046;-47
2023/03/27 02:24:04;;;;;;;10.37;2.00;;;2.60;99.90;;;;;;5015086;28;20025;-47
2023/03/27 02:26:32;;;;;;;12.83;2.10;;;2.50;99.90;;;;;;5015021;28;20052;-50
2023/03/27 02:29:06;;;;;;;14.57;2.30;;;2.50;99.90;;;;;;5032896;28;20033;-50
2023/03/27 02:31:57;;;;;;;12.30;1.90;;;2.50;99.90;;;;;;5015332;28;20147;-48
2023/03/27 02:34:41;;;;;;;13.10;2.67;;;2.40;99.90;;;;;;5032812;28;20030;-50
2023/03/27 02:37:32;;;;;;;13.43;2.10;;;2.40;99.90;;;;;;5015078;28;20091;-47
2023/03/27 02:40:43;;;;;;;13.70;2.13;;;2.40;99.90;;;;;;5014957;28;20120;-49
2023/03/27 02:43:33;;;;;;;10.57;2.40;;;2.40;99.90;;;;;;5032728;28;20489;-49
2023/03/27 02:46:35;;;;;;;14.80;2.03;;;2.30;99.90;;;;;;5014936;28;20064;-46
2023/03/27 02:49:06;;;;;;;14.57;2.10;;;2.30;99.90;;;;;;5018376;28;20410;-49
2023/03/27 02:51:44;;;;;;;11.20;2.10;;;2.30;99.90;;;;;;5014831;28;20402;-51
2023/03/27 02:54:23;;;;;;;13.70;2.50;;;2.20;99.90;;;;;;5014522;28;20052;-49
2023/03/27 02:56:54;;;;;;;11.77;2.05;;;2.30;99.90;;;;;;5014401;28;20071;-49
2023/03/27 02:59:35;;;;;;;13.63;2.40;;;2.30;99.90;;;;;;5014578;28;20099;-47
2023/03/27 03:02:13;;;;;;;11.27;2.30;;;2.20;99.90;;;;;;5014859;28;20025;-50
2023/03/27 03:05:00;;;;;;;12.52;2.60;;;2.20;99.90;;;;;;5014496;28;20117;-48
2023/03/27 03:07:39;;;;;;;17.13;4.33;;;2.10;99.90;;;;;;4999580;28;20037;-49
2023/03/27 03:10:10;;;;;;;9.77;2.50;;;2.10;99.90;;;;;;5014478;28;20025;-48
2023/03/27 03:12:36;;;;;;;14.93;2.83;;;2.10;99.90;;;;;;5014405;28;20030;-47
2023/03/27 03:15:02;;;;;;;15.60;2.57;;;2.00;99.90;;;;;;5014150;28;20037;-46
2023/03/27 03:17:29;;;;;;;12.20;2.30;;;2.10;99.90;;;;;;5014146;28;20064;-48
2023/03/27 03:19:55;;;;;;;12.43;2.10;;;2.00;99.90;;;;;;5031902;28;20025;-49
2023/03/27 03:22:21;;;;;;;11.77;2.00;;;2.00;99.90;;;;;;5014263;28;20071;-48
2023/03/27 03:24:47;;;;;;;7.43;1.77;;;2.00;99.90;;;;;;5013967;28;20029;-47
2023/03/27 03:27:19;;;;;;;14.02;2.40;;;2.00;99.90;;;;;;5013925;28;20029;-48
2023/03/27 03:30:08;;;;;;;13.63;2.30;;;1.90;99.90;;;;;;5014002;28;20040;-47
2023/03/27 03:32:40;;;;;;;10.13;2.50;;;1.90;99.90;;;;;;5014080;28;20021;-48
2023/03/27 03:35:08;;;;;;;9.87;2.17;;;1.90;99.90;;;;;;5013710;28;20124;-47
2023/03/27 03:37:37;;;;;;;10.40;2.10;;;1.90;99.90;;;;;;5013103;28;20044;-46
2023/03/27 03:40:10;;;;;;;12.57;2.03;;;1.90;99.90;;;;;;5013778;28;20026;-48
2023/03/27 03:42:49;;;;;;;12.53;2.80;;;1.90;99.90;;;;;;5013877;28;20026;-47
2023/03/27 03:45:18;;;;;;;;;;;1.90;99.90;;;;;;5014368;28;20512;-48
2023/03/27 03:47:45;;;;;;;12.33;2.50;;;1.90;99.90;;;;;;5013572;28;20285;-47
2023/03/27 03:50:11;;;;;;;7.30;1.70;;;1.90;99.90;;;;;;5013696;28;20061;-46
2023/03/27 03:52:38;;;;;;;9.53;1.97;;;1.90;99.90;;;;;;5013661;28;20037;-49
2023/03/27 03:55:05;;;;;;;13.53;2.40;;;1.90;99.90;;;;;;5013259;28;20124;-48
2023/03/27 03:57:31;;;;;;;12.07;2.33;;;1.90;99.90;;;;;;5013281;28;20064;-47
2023/03/27 04:00:07;;;;;;;9.37;2.00;;;1.80;99.90;;;;;;5013584;28;20029;-48
2023/03/27 04:02:52;;;;;;;13.57;2.10;;;1.80;99.90;;;;;;5013641;28;20025;-46
2023/03/27 04:05:21;;;;;;;15.13;2.73;;;1.90;99.90;;;;;;5031061;28;20036;-46
2023/03/27 04:07:51;;;;;;;11.57;2.50;;;1.90;99.90;;;;;;5013081;28;20029;-46
2023/03/27 04:10:19;;;;;;;12.95;2.22;;;1.90;99.90;;;;;;5031243;28;20049;-50
2023/03/27 04:12:50;;;;;;;19.23;2.50;;;1.80;99.90;;;;;;5013409;28;20044;-46
2023/03/27 04:15:26;;;;;;;11.90;2.07;;;1.80;99.90;;;;;;5013035;28;20034;-47
2023/03/27 04:17:58;;;;;;;9.63;1.87;;;1.80;99.90;;;;;;5030648;28;20041;-48
2023/03/27 04:20:25;;;;;;;11.33;2.83;;;1.80;99.90;;;;;;5013140;28;20398;-48
2023/03/27 04:22:53;;;;;;;11.30;2.37;;;1.90;99.90;;;;;;5013176;28;20111;-46
2023/03/27 04:25:22;;;;;;;11.70;1.90;;;1.90;99.90;;;;;;5012925;28;20056;-47
2023/03/27 04:27:51;;;;;;;10.50;2.60;;;1.90;99.90;;;;;;5012861;28;20033;-46
2023/03/27 04:30:24;;;;;;;8.60;1.90;;;2.00;99.90;;;;;;5013059;28;20425;-46
2023/03/27 04:33:17;;;;;;;11.50;2.23;;;2.00;99.90;;;;;;5030811;28;20091;-48
2023/03/27 04:36:03;;;;;;;10.90;2.20;;;1.90;99.90;;;;;;4999646;28;20033;-46
2023/03/27 04:38:39;;;;;;;9.70;2.17;;;1.90;99.90;;;;;;5012671;28;20041;-48
2023/03/27 04:41:06;;;;;;;10.07;2.43;;;2.00;99.90;;;;;;5012787;28;20474;-49
2023/03/27 04:43:35;;;;;;;7.97;1.87;;;2.00;99.90;;;;;;5012711;28;20025;-48
2023/03/27 04:46:05;;;;;;;16.83;2.37;;;2.00;99.90;;;;;;5012828;28;20030;-49
2023/03/27 04:48:31;;;;;;;8.35;2.13;;;2.00;99.90;;;;;;5029401;28;20033;-49
2023/03/27 04:50:57;;;;;;;12.23;1.87;;;2.00;99.90;;;;;;5012790;28;20036;-52
2023/03/27 04:53:33;;;;;;;15.37;2.83;;;2.00;99.90;;;;;;5012489;28;20091;-46
2023/03/27 04:56:00;;;;;;;12.67;2.30;;;2.00;99.90;;;;;;5030476;28;20482;-46
2023/03/27 04:58:27;;;;;;;9.80;2.23;;;2.00;99.90;;;;;;5012439;28;20033;-46
2023/03/27 05:00:54;;;;;;;10.73;2.30;;;2.00;99.90;;;;;;5012696;28;20026;-50
2023/03/27 05:03:39;;;;;;;11.57;2.30;;;2.00;99.90;;;;;;5030289;28;20560;-48
2023/03/27 05:06:13;;;;;;;13.73;3.03;;;2.10;99.90;;;;;;5012610;28;20171;-51
2023/03/27 05:08:40;;;;;;;11.50;2.23;;;2.10;99.90;;;;;;5012327;28;20309;-48
2023/03/27 05:11:06;;;;;;;19.07;3.57;;;2.10;99.90;;;;;;5012648;28;20116;-50
2023/03/27 05:13:41;;;;;;;8.47;3.00;;;2.20;99.90;;;;;;5012524;28;20375;-49
2023/03/27 05:16:08;;;;;;;11.63;2.37;;;2.10;99.90;;;;;;5030241;28;20025;-50
2023/03/27 05:18:40;;;;;;;10.77;2.30;;;2.20;99.90;;;;;;5012198;28;20033;-52
2023/03/27 05:21:06;;;;;;;8.40;2.60;;;2.20;99.90;;;;;;5012650;28;20025;-49
2023/03/27 05:23:32;;;;;;;13.17;2.50;;;2.20;99.90;;;;;;5012276;28;20033;-50
2023/03/27 05:26:00;;;;;;;11.50;2.37;;;2.30;99.90;;;;;;5012555;28;20064;-48
2023/03/27 05:28:32;;;;;;;12.27;2.33;;;2.30;99.90;;;;;;5012114;28;20099;-49
2023/03/27 05:30:58;;;;;;;11.13;3.00;;;2.40;99.90;;;;;;5012376;28;20030;-47
2023/03/27 05:33:24;;;;;;;12.07;2.57;;;2.40;99.90;;;;;;5012202;28;20034;-49
2023/03/27 05:35:53;;;;;;;14.87;2.93;;;2.50;99.90;;;;;;5012188;28;20505;-50
2023/03/27 05:38:21;;;;;;;11.27;2.57;;;2.50;99.90;;;;;;5012032;28;20053;-47
2023/03/27 05:41:10;;;;;;;12.73;2.42;;;2.60;99.90;;;;;;4998975;28;20075;-51
2023/03/27 05:43:41;;;;;;;8.53;2.20;;;2.60;99.90;;;;;;5012141;28;20033;-51
2023/03/27 05:46:07;;;;;;;10.40;2.47;;;2.70;99.90;;;;;;5012366;28;20041;-49
2023/03/27 05:48:34;;;;;;;13.43;2.57;;;2.70;99.90;;;;;;5011974;28;20049;-50
2023/03/27 05:51:03;;;;;;;8.97;2.13;;;2.70;99.90;;;;;;5012224;28;20029;-51
2023/03/27 05:53:29;;;;;;;11.07;2.50;;;2.80;99.90;;;;;;5012216;28;20083;-50
2023/03/27 05:56:13;;;;;;;11.30;2.23;;;2.80;99.90;;;;;;5029979;28;20044;-52
2023/03/27 05:58:50;;;;;;;9.30;2.23;;;2.80;99.90;;;;;;5011912;28;20406;-50
2023/03/27 06:01:16;;;;;;;8.37;2.20;;;2.90;99.90;;;;;;5015251;28;20121;-46
2023/03/27 06:03:42;;;;;;;7.43;2.03;;;2.90;99.90;;;;;;5015442;28;20116;-46
2023/03/27 06:06:15;;;;;;;11.17;2.10;;;2.90;99.90;;;;;;5015561;28;20029;-49
2023/03/27 06:08:43;;;;;;;9.80;2.20;;;2.90;99.90;;;;;;5015463;28;20407;-46
2023/03/27 06:11:11;;;;;;;7.97;1.93;;;2.90;99.90;;;;;;5015625;28;20099;-46
2023/03/27 06:13:43;;;;;;;7.93;2.00;;;3.00;99.90;;;;;;5015377;28;20026;-47
2023/03/27 06:16:13;;;;;;;13.93;2.20;;;3.00;99.90;;;;;;5015508;28;20116;-47
2023/03/27 06:18:57;;;;;;;8.47;2.00;;;3.00;99.90;;;;;;5033013;28;20559;-49
2023/03/27 06:21:24;;;;;;;8.03;1.80;;;3.00;99.90;;;;;;5015454;28;20396;-50
2023/03/27 06:23:56;;;;;;;6.50;1.80;;;3.00;99.90;;;;;;5015256;28;20079;-47
2023/03/27 06:26:22;;;;;;;8.27;2.03;;;3.10;99.90;;;;;;5015134;28;20038;-51
2023/03/27 06:28:48;;;;;;;7.67;1.80;;;3.10;99.90;;;;;;5033050;28;20025;-46
2023/03/27 06:31:16;;;;;;;9.47;2.30;;;3.10;99.90;;;;;;5015146;28;20045;-49
2023/03/27 06:33:56;;;;;;;8.23;1.73;;;3.00;99.90;;;;;;5014956;28;20040;-48
2023/03/27 06:36:41;;;;;;;7.60;2.40;;;3.00;99.90;;;;;;5032738;28;20076;-46
2023/03/27 06:39:09;;;;;;;9.47;2.00;;;2.90;99.90;;;;;;5015048;28;20033;-53
2023/03/27 06:41:36;;;;;;;8.90;2.30;;;2.90;99.90;;;;;;5015146;28;20029;-50
2023/03/27 06:44:04;;;;;;;7.60;2.23;;;2.90;99.90;;;;;;5033063;28;20026;-50
2023/03/27 06:46:42;;;;;;;11.53;2.33;;;3.00;99.90;;;;;;5014786;28;20036;-49
2023/03/27 06:49:12;;;;;;;7.43;2.03;;;3.20;99.90;;;;;;5014695;28;20379;-51
2023/03/27 06:51:38;;;;;;;9.70;2.30;;;3.30;99.90;;;;;;5032625;28;20034;-49
2023/03/27 06:54:05;;;;;;;10.37;2.13;;;3.50;99.90;;;;;;5014634;28;20136;-50
2023/03/27 06:56:31;;;;;;;9.13;1.73;;;3.70;99.90;;;;;;5014435;28;20056;-49
2023/03/27 06:59:32;;;;;;;6.03;1.77;;;3.80;99.90;;;;;;5040110;22;20508;-50
2023/03/27 07:02:01;;;;;;;5.45;1.80;;;4.20;99.90;;;;;;5054430;28;20028;-51
2023/03/27 07:04:47;;;;;;;5.03;1.30;;;4.60;99.90;;;;;;5010851;28;20566;-50
2023/03/27 07:07:27;;;;;;;3.87;1.27;;;5.10;99.90;;;;;;5054127;28;20020;-47
2023/03/27 07:09:53;;;;;;;8.30;1.90;;;5.60;99.90;;;;;;5072002;28;20385;-49
2023/03/27 07:12:25;;;;;;;7.10;1.37;;;5.80;99.90;;;;;;5053092;28;20025;-48
2023/03/27 07:14:50;;;;;;;6.07;1.40;;;5.80;99.90;;;;;;5053689;28;20033;-50
2023/03/27 07:17:16;;;;;;;7.23;1.50;;;5.90;99.90;;;;;;5071375;28;20032;-48
2023/03/27 07:19:51;;;;;;;11.20;1.83;;;6.30;99.90;;;;;;5053731;28;20037;-49
2023/03/27 07:22:20;;;;;;;4.65;1.23;;;6.70;99.90;;;;;;5053826;28;20032;-50
2023/03/27 07:24:45;;;;;;;5.77;1.53;;;7.20;99.90;;;;;;5053622;28;20036;-49
2023/03/27 07:27:11;;;;;;;4.90;1.00;;;7.70;99.90;;;;;;5053660;28;20499;-51
2023/03/27 07:29:37;;;;;;;7.30;0.93;;;8.10;99.90;;;;;;5053529;28;20119;-49
2023/03/27 07:32:04;;;;;;;7.60;1.10;;;8.60;99.90;;;;;;5036926;28;20103;-49
2023/03/27 07:34:37;;;;;;;4.33;1.00;;;8.80;99.90;;;;;;5053573;28;20493;-50
2023/03/27 07:37:21;;;;;;;5.77;1.20;;;8.50;99.90;;;;;;5071531;28;20041;-50
2023/03/27 07:40:13;;;;;;;6.37;1.10;;;8.70;99.90;;;;;;5070659;28;20060;-49
2023/03/27 07:42:49;;;;;;;4.43;0.90;;;9.20;99.90;;;;;;5053390;28;20103;-52
2023/03/27 07:45:19;;;;;;;5.93;1.10;;;8.80;99.90;;;;;;5053267;28;20032;-50
2023/03/27 07:47:47;;;;;;;5.47;1.30;;;8.80;99.90;;;;;;5053011;28;20039;-51
2023/03/27 07:50:16;;;;;;;6.93;1.10;;;8.60;99.90;;;;;;5036597;28;20032;-52
2023/03/27 07:52:43;;;;;;;8.25;1.35;;;8.30;99.90;;;;;;5071103;28;20032;-51
2023/03/27 07:55:16;;;;;;;5.73;1.10;;;8.10;99.90;;;;;;5052907;28;20413;-50
2023/03/27 07:57:48;;;;;;;6.10;1.10;;;8.10;99.90;;;;;;5053193;28;20035;-50
2023/03/27 08:00:17;;;;;;;7.65;1.15;;;8.10;99.90;;;;;;5052931;28;20031;-50
2023/03/27 08:02:50;;;;;;;8.33;1.20;;;7.80;99.90;;;;;;5053043;28;20025;-53
2023/03/27 08:05:17;;;;;;;8.40;1.40;;;7.40;99.90;;;;;;5052727;28;20590;-51
2023/03/27 08:07:51;;;;;;;7.60;1.27;;;7.10;99.90;;;;;;5052841;28;20028;-48
2023/03/27 08:10:36;;;;;;;3.80;1.10;;;7.00;99.90;;;;;;5052932;28;20043;-50
2023/03/27 08:13:02;;;;;;;7.47;2.20;;;7.00;99.90;;;;;;5052887;28;20032;-49
2023/03/27 08:15:28;;;;;;;7.43;1.37;;;6.90;99.90;;;;;;5052414;28;20028;-52
2023/03/27 08:17:57;;;;;;;8.43;1.73;;;7.00;99.90;;;;;;5052530;28;20039;-51
2023/03/27 08:20:29;;;;;;;8.37;1.60;;;7.00;99.90;;;;;;5052927;28;20027;-52
2023/03/27 08:22:54;;;;;;;6.53;1.97;;;6.80;99.90;;;;;;5052702;28;20028;-50
2023/03/27 08:25:32;;;;;;;8.23;1.50;;;6.70;99.90;;;;;;5070641;28;20040;-49
2023/03/27 08:28:01;;;;;;;9.47;1.87;;;7.00;99.90;;;;;;5052374;28;20033;-53
2023/03/27 08:30:28;;;;;;;8.20;1.60;;;7.20;99.90;;;;;;5052706;28;20028;-49
2023/03/27 08:32:54;;;;;;;7.33;1.40;;;7.40;99.90;;;;;;5052615;28;20119;-50
2023/03/27 08:35:20;;;;;;;6.60;1.70;;;7.60;99.90;;;;;;5052335;28;20124;-50
2023/03/27 08:37:45;;;;;;;10.33;2.03;;;7.60;99.90;;;;;;5070491;28;20029;-49
2023/03/27 08:40:32;;;;;;;7.03;1.53;;;7.30;99.90;;;;;;5052440;28;20024;-48
2023/03/27 08:43:26;;;;;;;3.87;1.23;;;7.10;99.90;;;;;;5052443;28;20120;-49
2023/03/27 08:46:00;;;;;;;8.20;2.07;;;7.30;99.90;;;;;;5052484;28;20029;-46
2023/03/27 08:48:47;;;;;;;10.17;1.40;;;7.30;99.90;;;;;;5052203;28;20033;-47
2023/03/27 08:51:22;;;;;;;8.37;1.90;;;7.40;99.90;;;;;;5052602;28;20071;-46
2023/03/27 08:53:57;;;;;;;8.03;1.67;;;7.40;99.90;;;;;;5052315;28;20024;-49
2023/03/27 08:56:28;;;;;;;8.90;1.87;;;7.40;99.90;;;;;;5052146;28;20074;-47
2023/03/27 08:58:55;;;;;;;7.60;1.60;;;7.20;99.90;;;;;;5052131;28;20562;-49
2023/03/27 09:01:28;;;;;;;8.07;1.80;;;7.10;99.90;;;;;;5052319;28;20021;-49
2023/03/27 09:04:31;;;;;;;6.57;1.40;;;7.10;99.90;;;;;;5052152;28;20031;-47
2023/03/27 09:07:02;;;;;;;6.53;1.53;;;6.80;99.90;;;;;;5052262;28;20545;-48
2023/03/27 09:10:01;;;;;;;9.40;1.87;;;6.60;99.90;;;;;;5052348;28;20086;-48
2023/03/27 09:12:47;;;;;;;9.63;1.98;;;6.70;99.90;;;;;;5052532;28;20036;-50
2023/03/27 09:15:24;;;;;;;9.77;1.47;;;6.50;99.90;;;;;;5052130;28;20032;-48
2023/03/27 09:17:57;;;;;;;8.70;1.57;;;6.30;99.90;;;;;;5052250;28;20036;-50
2023/03/27 09:20:31;;;;;;;5.73;1.90;;;6.00;99.90;;;;;;5070450;28;20102;-53
2023/03/27 09:23:04;;;;;;;8.47;1.90;;;5.90;99.90;;;;;;5052647;28;20503;-51
2023/03/27 09:26:11;;;;;;;4.50;1.40;;;6.00;99.90;;;;;;5070240;28;20434;-51
2023/03/27 09:29:04;;;;;;;7.47;1.67;;;6.20;99.90;;;;;;5070581;28;20045;-48
2023/03/27 09:31:38;;;;;;;8.73;1.63;;;6.40;99.90;;;;;;5052443;28;20119;-47
2023/03/27 09:34:12;;;;;;;5.47;1.50;;;6.60;99.90;;;;;;5052118;28;20037;-53
2023/03/27 09:36:38;;;;;;;5.87;1.60;;;7.40;99.90;;;;;;5055777;28;20029;-49
2023/03/27 09:39:11;;;;;;;6.63;1.50;;;7.50;99.90;;;;;;5055953;28;20396;-53
2023/03/27 09:41:49;;;;;;;8.63;1.60;;;7.80;99.90;;;;;;5074135;28;20062;-49
2023/03/27 09:44:24;;;;;;;6.03;1.83;;;8.00;99.90;;;;;;5055925;28;20085;-50
2023/03/27 09:47:14;;;;;;;7.47;1.53;;;8.10;99.90;;;;;;5056016;28;20082;-48
2023/03/27 09:49:45;;;;;;;5.67;1.47;;;8.10;99.90;;;;;;5056426;28;20089;-49
2023/03/27 09:52:37;;;;;;;7.73;1.70;;;8.40;99.90;;;;;;5056054;28;20139;-51
2023/03/27 09:55:25;;;;;;;10.17;1.43;;;8.70;99.90;;;;;;5055711;28;20035;-50
2023/03/27 09:57:59;;;;;;;8.30;1.75;;;8.90;99.90;;;;;;5055705;28;20077;-52
2023/03/27 10:00:29;;;;;;;7.13;1.43;;;9.30;99.90;;;;;;5055632;28;20036;-51
2023/03/27 10:03:06;;;;;;;6.20;1.40;;;10.30;99.90;;;;;;5055696;28;20124;-52
2023/03/27 10:05:35;;;;;;;7.80;1.60;;;10.50;99.90;;;;;;5055659;28;20424;-48
2023/03/27 10:08:37;;;;;;;8.43;1.87;;;10.00;99.90;;;;;;5055319;28;20040;-51
2023/03/27 10:11:14;;;;;;;5.03;1.40;;;9.90;99.90;;;;;;5055744;28;20024;-51
2023/03/27 10:13:47;;;;;;;;;;;9.20;99.90;;;;;;5055936;28;20029;-53
2023/03/27 10:16:19;;;;;;;9.53;1.80;;;8.80;99.90;;;;;;5055426;28;19912;-50
2023/03/27 10:18:58;;;;;;;5.83;1.40;;;8.80;99.90;;;;;;5055519;28;20031;-48
2023/03/27 10:21:39;;;;;;;5.40;1.25;;;8.40;99.90;;;;;;5055514;28;20503;-50
2023/03/27 10:24:25;;;;;;;7.23;1.50;;;8.00;99.90;;;;;;5055125;28;20417;-52
2023/03/27 10:27:24;;;;;;;10.63;2.80;;;7.30;99.90;;;;;;5067983;28;20029;-50
2023/03/27 10:30:31;;;;;;;8.15;2.30;;;6.70;99.90;;;;;;5058541;28;20540;-51
2023/03/27 10:33:35;;;;;;;5.27;2.33;;;7.30;99.90;;;;;;5072972;28;20032;-53
2023/03/27 10:36:20;;;;;;;9.80;1.80;;;8.60;99.90;;;;;;5054949;28;20457;-50
2023/03/27 10:38:55;;;;;;;8.05;1.40;;;10.10;99.90;;;;;;5054979;28;20025;-54
2023/03/27 10:41:35;;;;;;;4.90;1.10;;;10.80;99.90;;;;;;5055182;28;20039;-54
2023/03/27 10:44:16;;;;;;;5.35;1.10;;;12.20;98.30;;;;;;5055120;28;20119;-52
2023/03/27 10:46:48;;;;;;;6.78;1.15;;;13.10;95.90;;;;;;5053412;28;20401;-52
2023/03/27 10:49:35;;;;;;;3.58;1.15;;;14.20;92.10;;;;;;5072612;28;20025;-50
2023/03/27 10:52:10;;;;;;;5.13;1.10;;;14.50;90.70;;;;;;5054810;28;20040;-53
2023/03/27 10:55:07;;;;;;;4.38;1.10;;;13.90;90.40;;;;;;5071781;28;20028;-50
2023/03/27 10:57:33;;;;;;;5.10;1.60;;;13.30;87.60;;;;;;5054470;28;20101;-53
2023/03/27 11:00:18;;;;;;;4.22;1.20;;;13.00;89.20;;;;;;5054317;28;20071;-51
2023/03/27 11:02:59;;;;;;;3.78;1.40;;;13.50;90.10;;;;;;5054335;28;20032;-51
2023/03/27 11:05:47;;;;;;;3.50;1.05;;;13.30;89.20;;;;;;5054180;28;20481;-50
2023/03/27 11:08:52;;;;;;;3.78;0.80;;;11.20;93.40;;;;;;5054070;28;20078;-52
2023/03/27 11:11:28;;;;;;;2.70;0.90;;;8.40;99.90;;;;;;5046003;28;20385;-52
2023/03/27 11:14:01;;;;;;;4.83;0.83;;;7.30;99.90;;;;;;5054113;28;20036;-50
2023/03/27 11:16:51;;;;;;;2.10;0.80;;;7.00;99.90;;;;;;5053849;28;20125;-51
2023/03/27 11:19:21;;;;;;;3.97;1.00;;;7.50;99.90;;;;;;5071897;28;20400;-49
2023/03/27 11:22:18;;;;;;;3.60;0.80;;;8.40;99.90;;;;;;5072099;28;20044;-53
2023/03/27 11:25:13;;;;;;;2.17;0.60;;;9.40;99.90;;;;;;5071661;28;20032;-50
2023/03/27 11:27:47;;;;;;;4.70;1.20;;;10.40;99.90;;;;;;5053694;28;20024;-51
2023/03/27 11:30:40;;;;;;;3.60;0.80;;;11.20;99.90;;;;;;5053671;28;20158;-52
2023/03/27 11:33:41;;;;;;;5.97;0.90;;;12.10;99.90;;;;;;5053749;28;20025;-48
2023/03/27 11:36:15;;;;;;;2.95;1.08;;;12.60;99.50;;;;;;5053672;28;20029;-51
2023/03/27 11:38:53;;;;;;;3.05;0.95;;;12.40;97.50;;;;;;5053459;28;20078;-53
2023/03/27 11:41:19;;;;;;;3.50;1.23;;;12.20;99.40;;;;;;5053503;28;20029;-50
2023/03/27 11:43:45;;;;;;;3.85;1.30;;;12.30;98.00;;;;;;5053205;28;20485;-51
2023/03/27 11:47:14;;;;;;;6.05;1.15;;;12.00;96.20;;;;;;5070634;28;20593;-53
2023/03/27 11:50:10;;;;;;;5.32;1.20;;;12.00;98.60;;;;;;5053215;28;20028;-49
2023/03/27 11:52:53;;;;;;;4.90;1.40;;;12.60;97.30;;;;;;5045697;28;20129;-53
2023/03/27 11:56:01;;;;;;;3.22;1.10;;;13.40;94.20;;;;;;5052969;28;20052;-47
2023/03/27 11:58:35;;;;;;;8.18;2.25;;;12.80;95.00;;;;;;5052216;28;20028;-50
2023/03/27 12:01:11;;;;;;;3.22;1.10;;;12.00;95.10;;;;;;5053260;28;20024;-51
2023/03/27 12:04:07;;;;;;;4.32;0.80;;;11.40;99.10;;;;;;5052945;28;20280;-51
2023/03/27 12:07:20;;;;;;;2.58;0.73;;;10.00;99.90;;;;;;5069927;28;20115;-50
2023/03/27 12:10:25;;;;;;;4.83;1.00;;;9.20;99.90;;;;;;5052900;28;20431;-52
2023/03/27 12:13:27;;;;;;;2.85;0.88;;;9.20;99.90;;;;;;5053005;28;20065;-50
2023/03/27 12:16:14;;;;;;;4.40;0.70;;;9.50;99.90;;;;;;5052856;28;20590;-51
2023/03/27 12:19:25;;;;;;;3.43;0.80;;;9.80;99.90;;;;;;5052800;28;20485;-50
2023/03/27 12:22:21;;;;;;;3.20;0.80;;;9.80;99.90;;;;;;5052877;28;20025;-47
2023/03/27 12:24:58;;;;;;;4.83;1.47;;;9.80;99.90;;;;;;5070900;28;20025;-52
2023/03/27 12:28:05;;;;;;;4.87;1.83;;;9.60;99.90;;;;;;5056770;28;20044;-48
2023/03/27 12:30:55;;;;;;;5.03;1.27;;;9.10;99.90;;;;;;5052620;28;20033;-51
2023/03/27 12:33:50;;;;;;;4.50;1.37;;;8.20;99.90;;;;;;5052419;28;20116;-49
2023/03/27 12:36:21;;;;;;;3.33;1.30;;;8.40;99.90;;;;;;5049722;28;20032;-51
2023/03/27 12:38:49;;;;;;;4.23;1.20;;;8.70;99.90;;;;;;5052396;28;20107;-50
2023/03/27 12:41:36;;;;;;;3.87;1.27;;;9.20;99.90;;;;;;5052343;28;20477;-51
2023/03/27 12:44:20;;;;;;;5.57;1.53;;;9.50;99.90;;;;;;5052138;28;20020;-49
2023/03/27 12:47:22;;;;;;;4.60;1.40;;;9.80;99.90;;;;;;5052167;28;20036;-51
2023/03/27 12:50:08;;;;;;;7.20;0.90;;;9.70;99.90;;;;;;5052320;28;20033;-52
2023/03/27 12:52:37;;;;;;;3.70;0.80;;;10.00;99.90;;;;;;5052280;28;20056;-51
2023/03/27 12:55:33;;;;;;;7.32;2.33;;;10.20;97.60;;;;;;5052032;28;20128;-51
2023/03/27 12:58:01;;;;;;;4.40;1.00;;;10.30;99.00;;;;;;5070039;28;20031;-51
2023/03/27 13:01:00;;;;;;;4.50;1.00;;;10.40;97.20;;;;;;5084814;22;20056;-53
2023/03/27 13:04:07;;;;;;;4.60;1.13;;;10.20;97.50;;;;;;5052195;28;20515;-50
2023/03/27 13:06:54;;;;;;;4.70;1.27;;;9.60;98.70;;;;;;5052234;28;20037;-53
2023/03/27 13:09:56;;;;;;;3.40;0.83;;;9.60;98.20;;;;;;5052376;28;20028;-52
2023/03/27 13:12:41;;;;;;;1.40;0.53;;;8.50;99.90;;;;;;5056145;28;20120;-50
2023/03/27 13:15:07;;;;;;;2.53;0.70;;;7.90;99.90;;;;;;5056046;28;20028;-52
2023/03/27 13:17:54;;;;;;;2.97;0.67;;;7.30;99.90;;;;;;5056134;28;20029;-53
2023/03/27 13:20:50;;;;;;;2.37;0.63;;;6.50;99.90;;;;;;5056191;28;20024;-54
2023/03/27 13:23:48;;;;;;;2.93;0.90;;;6.40;99.90;;;;;;5056238;28;20049;-49
2023/03/27 13:26:42;;;;;;;9.20;1.10;;;6.30;99.90;;;;;;5038833;28;20048;-49
2023/03/27 13:29:20;;;;;;;5.60;1.20;;;6.60;99.90;;;;;;5056084;28;20028;-48
2023/03/27 13:31:59;;;;;;;3.87;0.87;;;6.40;99.90;;;;;;5056159;28;20036;-51
2023/03/27 13:34:38;;;;;;;4.80;1.20;;;6.10;99.90;;;;;;5055755;28;20055;-52
2023/03/27 13:37:10;;;;;;;8.03;1.87;;;5.80;99.90;;;;;;5055724;28;20039;-50
2023/03/27 13:39:58;;;;;;;7.87;1.70;;;5.80;99.90;;;;;;5055802;28;20032;-50
2023/03/27 13:42:31;;;;;;;6.33;1.37;;;5.90;99.90;;;;;;5055885;28;20031;-52